Time;durP1;ratioP1;P1;durP2;ratioP2;P2;SDS_P1;SDS_P2;PMS_P1;PMS_P2;Temp;Humidity;BMP_temperature;BMP_pressure;BME280_temperature;BME280_humidity;BME280_pressure;Samples;Min_cycle;Max_cycle;Signal;HPM_P1;HPM_P2
2024/01/24 00:02:08;;;;;;;30.40;21.05;;;10.40;78.10;;;;;;5072685;28;20021;-78
2024/01/24 00:04:34;;;;;;;30.17;20.00;;;10.30;78.10;;;;;;5072570;28;20505;-79
2024/01/24 00:07:00;;;;;;;33.28;22.08;;;10.30;78.20;;;;;;5072513;28;20024;-77
2024/01/24 00:09:26;;;;;;;34.85;21.23;;;10.20;78.40;;;;;;5072767;28;20100;-78
2024/01/24 00:11:51;;;;;;;33.75;20.75;;;10.20;78.80;;;;;;5072385;28;20025;-79
2024/01/24 00:14:17;;;;;;;37.88;22.05;;;10.20;78.90;;;;;;5072472;28;20040;-79
2024/01/24 00:16:43;;;;;;;35.60;22.25;;;10.20;78.70;;;;;;5072380;28;20016;-79
2024/01/24 00:19:08;;;;;;;33.50;21.75;;;10.20;78.90;;;;;;5072284;28;20367;-78
2024/01/24 00:21:35;;;;;;;36.22;21.60;;;10.20;78.60;;;;;;5072806;28;20025;-79
2024/01/24 00:24:01;;;;;;;35.97;22.70;;;10.30;78.40;;;;;;5072423;28;20013;-79
2024/01/24 00:26:27;;;;;;;29.25;21.10;;;10.20;78.40;;;;;;5072791;28;20482;-78
2024/01/24 00:28:53;;;;;;;29.88;20.08;;;10.10;78.40;;;;;;5072660;28;20082;-78
2024/01/24 00:31:18;;;;;;;31.10;20.13;;;10.10;78.90;;;;;;5072807;28;20031;-78
2024/01/24 00:33:44;;;;;;;27.30;19.15;;;10.00;78.50;;;;;;5072300;28;20023;-77
2024/01/24 00:36:10;;;;;;;27.92;19.63;;;10.00;78.80;;;;;;5072344;28;20029;-78
2024/01/24 00:38:35;;;;;;;29.75;18.30;;;10.00;78.70;;;;;;5072177;28;20060;-77
2024/01/24 00:41:01;;;;;;;27.30;19.10;;;9.90;80.10;;;;;;5072152;28;20032;-79
2024/01/24 00:43:27;;;;;;;27.58;20.35;;;9.80;80.60;;;;;;5072340;28;20019;-79
2024/01/24 00:45:52;;;;;;;28.63;19.25;;;9.70;80.50;;;;;;5072126;28;20020;-78
2024/01/24 00:48:18;;;;;;;27.85;18.95;;;9.70;80.60;;;;;;5072459;28;20103;-78
2024/01/24 00:50:44;;;;;;;30.23;19.10;;;9.70;80.60;;;;;;5072490;28;20031;-78
2024/01/24 00:53:15;;;;;;;26.33;17.98;;;9.70;80.60;;;;;;5072022;28;20036;-77
2024/01/24 00:55:41;;;;;;;28.55;18.08;;;9.70;80.70;;;;;;5071976;28;20442;-78
2024/01/24 00:58:07;;;;;;;29.92;18.83;;;9.60;80.70;;;;;;5072186;28;20645;-79
2024/01/24 01:00:33;;;;;;;25.13;18.52;;;9.60;81.30;;;;;;5072147;28;20059;-78
2024/01/24 01:02:58;;;;;;;31.17;18.88;;;9.60;80.40;;;;;;5072125;28;20049;-77
2024/01/24 01:05:24;;;;;;;28.17;17.33;;;9.70;80.60;;;;;;5071197;28;20029;-79
2024/01/24 01:07:50;;;;;;;27.20;18.13;;;9.70;81.00;;;;;;5072245;28;20016;-78
2024/01/24 01:10:16;;;;;;;25.75;17.80;;;9.70;80.50;;;;;;5072135;28;20016;-79
2024/01/24 01:12:42;;;;;;;28.10;18.58;;;9.60;81.00;;;;;;5070623;28;20067;-80
2024/01/24 01:15:08;;;;;;;26.60;16.90;;;9.60;81.20;;;;;;5072289;28;20040;-78
2024/01/24 01:17:34;;;;;;;27.48;17.20;;;9.50;81.00;;;;;;5072107;28;20070;-78
2024/01/24 01:19:59;;;;;;;29.42;17.15;;;9.60;81.10;;;;;;5072170;28;20032;-78
2024/01/24 01:22:25;;;;;;;27.05;17.70;;;9.50;80.90;;;;;;5072144;28;20104;-78
2024/01/24 01:24:51;;;;;;;26.83;18.35;;;9.50;81.50;;;;;;5070743;28;20032;-79
2024/01/24 01:27:16;;;;;;;24.85;17.25;;;9.50;81.30;;;;;;5072246;28;20498;-78
2024/01/24 01:29:42;;;;;;;27.77;17.02;;;9.40;81.20;;;;;;5072194;28;20023;-79
2024/01/24 01:32:08;;;;;;;25.92;17.23;;;9.30;81.10;;;;;;5073743;28;20021;-77
2024/01/24 01:34:33;;;;;;;24.30;17.33;;;9.30;81.30;;;;;;5074820;28;20044;-77
2024/01/24 01:36:59;;;;;;;23.95;16.55;;;9.30;81.40;;;;;;5075941;28;20035;-78
2024/01/24 01:39:25;;;;;;;25.38;16.63;;;9.40;81.40;;;;;;5075268;28;20024;-79
2024/01/24 01:41:51;;;;;;;27.85;16.40;;;9.30;82.30;;;;;;5075371;28;20032;-78
2024/01/24 01:44:17;;;;;;;23.83;16.30;;;9.40;82.00;;;;;;5075471;28;20029;-78
2024/01/24 01:46:45;;;;;;;22.15;16.35;;;9.40;81.70;;;;;;5075560;28;20020;-78
2024/01/24 01:49:11;;;;;;;22.00;15.13;;;9.40;81.90;;;;;;5075157;28;20025;-78
2024/01/24 01:51:37;;;;;;;24.33;16.45;;;9.40;81.50;;;;;;5075103;28;20024;-78
2024/01/24 01:54:04;;;;;;;21.25;15.88;;;9.40;81.80;;;;;;5075008;28;20041;-78
2024/01/24 01:56:29;;;;;;;20.95;14.32;;;9.40;81.80;;;;;;5075356;28;20373;-77
2024/01/24 01:58:56;;;;;;;23.52;14.32;;;9.40;81.80;;;;;;5075466;28;20024;-78
2024/01/24 02:01:22;;;;;;;20.20;14.27;;;9.40;81.80;;;;;;5073790;28;20028;-77
2024/01/24 02:03:48;;;;;;;24.10;14.13;;;9.30;81.40;;;;;;5075157;28;20057;-79
2024/01/24 02:06:14;;;;;;;24.65;14.68;;;9.30;81.70;;;;;;5074651;28;20128;-78
2024/01/24 02:08:40;;;;;;;25.45;14.60;;;9.30;81.70;;;;;;5074575;28;20066;-78
2024/01/24 02:11:06;;;;;;;21.35;14.85;;;9.30;82.10;;;;;;5074348;28;20142;-79
2024/01/24 02:13:32;;;;;;;22.63;14.05;;;9.30;81.90;;;;;;5074513;28;20096;-79
2024/01/24 02:16:03;;;;;;;24.25;13.88;;;9.30;81.60;;;;;;5074491;28;20186;-78
2024/01/24 02:18:29;;;;;;;22.63;14.50;;;9.30;82.00;;;;;;5074643;28;20331;-77
2024/01/24 02:20:55;;;;;;;20.08;13.93;;;9.40;81.80;;;;;;5073302;28;20025;-79
2024/01/24 02:23:27;;;;;;;19.17;14.45;;;9.40;81.70;;;;;;5073396;28;20023;-79
2024/01/24 02:25:53;;;;;;;21.23;13.40;;;9.30;81.70;;;;;;5074577;28;20355;-79
2024/01/24 02:28:20;;;;;;;19.95;13.95;;;9.30;81.70;;;;;;5074318;28;20133;-79
2024/01/24 02:30:45;;;;;;;19.42;13.93;;;9.30;81.60;;;;;;5074460;28;20081;-80
2024/01/24 02:33:12;;;;;;;21.38;13.70;;;9.30;81.80;;;;;;5074253;28;20028;-79
2024/01/24 02:35:37;;;;;;;20.15;13.10;;;9.30;81.90;;;;;;5074236;28;20049;-79
2024/01/24 02:38:03;;;;;;;24.60;14.23;;;9.20;81.80;;;;;;5074572;28;20429;-79
2024/01/24 02:40:29;;;;;;;20.30;13.23;;;9.20;81.90;;;;;;5074272;28;20023;-78
2024/01/24 02:42:55;;;;;;;20.95;13.20;;;9.20;81.80;;;;;;5074409;28;20389;-77
2024/01/24 02:45:20;;;;;;;21.88;12.95;;;9.20;81.70;;;;;;5072978;28;20024;-78
2024/01/24 02:47:46;;;;;;;20.10;13.45;;;9.20;81.70;;;;;;5073868;28;20064;-78
2024/01/24 02:50:12;;;;;;;22.75;13.32;;;9.20;82.40;;;;;;5073900;28;20486;-78
2024/01/24 02:52:38;;;;;;;21.20;13.68;;;9.20;81.90;;;;;;5073949;28;20032;-77
2024/01/24 02:55:06;;;;;;;20.95;12.60;;;9.00;81.60;;;;;;5072250;28;20036;-78
2024/01/24 02:57:31;;;;;;;19.33;12.57;;;9.00;82.00;;;;;;5074334;28;20096;-78
2024/01/24 02:59:57;;;;;;;17.70;11.98;;;9.00;81.80;;;;;;5074057;28;20083;-78
2024/01/24 03:02:23;;;;;;;21.02;12.63;;;9.00;81.70;;;;;;5074457;28;20025;-79
2024/01/24 03:04:48;;;;;;;22.45;13.10;;;9.00;81.80;;;;;;5073581;28;20031;-78
2024/01/24 03:07:14;;;;;;;20.27;13.43;;;9.00;81.80;;;;;;5073479;28;20017;-78
2024/01/24 03:09:40;;;;;;;16.73;12.20;;;9.00;81.70;;;;;;5073797;28;20477;-79
2024/01/24 03:12:06;;;;;;;18.40;12.60;;;8.90;81.80;;;;;;5073502;28;20024;-77
2024/01/24 03:14:31;;;;;;;19.02;12.43;;;9.00;81.90;;;;;;5073538;28;20066;-78
2024/01/24 03:16:57;;;;;;;18.10;12.55;;;8.90;81.70;;;;;;5073411;28;20025;-77
2024/01/24 03:19:23;;;;;;;18.15;12.25;;;8.90;81.60;;;;;;5073463;28;20048;-78
2024/01/24 03:21:48;;;;;;;20.30;12.10;;;8.90;81.50;;;;;;5073566;28;20028;-79
2024/01/24 03:24:15;;;;;;;16.23;11.65;;;8.90;81.80;;;;;;5073103;28;20020;-78
2024/01/24 03:26:40;;;;;;;15.02;11.10;;;8.90;81.60;;;;;;5072102;28;20021;-78
2024/01/24 03:29:06;;;;;;;15.00;11.27;;;8.80;81.60;;;;;;5073138;28;20424;-77
2024/01/24 03:31:32;;;;;;;17.40;12.13;;;8.80;81.60;;;;;;5072771;28;20024;-78
2024/01/24 03:33:58;;;;;;;18.40;11.30;;;8.80;81.40;;;;;;5072886;28;20093;-79
2024/01/24 03:36:23;;;;;;;17.88;11.13;;;8.70;81.60;;;;;;5073104;28;20036;-78
2024/01/24 03:38:49;;;;;;;16.20;10.68;;;8.70;81.60;;;;;;5073345;28;20059;-77
2024/01/24 03:41:15;;;;;;;20.20;10.10;;;8.70;82.00;;;;;;5073003;28;20025;-78
2024/01/24 03:43:40;;;;;;;21.35;10.88;;;8.60;81.60;;;;;;5073270;28;20115;-79
2024/01/24 03:46:07;;;;;;;18.92;10.25;;;8.60;81.70;;;;;;5073053;28;20468;-78
2024/01/24 03:48:32;;;;;;;15.77;10.57;;;8.60;81.60;;;;;;5072679;28;20113;-78
2024/01/24 03:50:58;;;;;;;14.45;9.20;;;8.60;81.70;;;;;;5073078;28;20067;-78
2024/01/24 03:53:24;;;;;;;18.17;10.93;;;8.50;81.60;;;;;;5071260;28;20095;-79
2024/01/24 03:55:50;;;;;;;15.80;11.10;;;8.50;81.90;;;;;;5072238;28;20508;-79
2024/01/24 03:58:16;;;;;;;19.08;11.15;;;8.50;81.90;;;;;;5071218;28;20031;-77
2024/01/24 04:00:42;;;;;;;20.30;11.60;;;8.40;82.20;;;;;;5072719;28;20482;-78
2024/01/24 04:03:08;;;;;;;16.33;10.27;;;8.50;82.30;;;;;;5072751;28;20020;-78
2024/01/24 04:05:34;;;;;;;15.40;9.63;;;8.40;82.00;;;;;;5072612;28;20017;-78
2024/01/24 04:08:00;;;;;;;12.70;9.65;;;8.40;82.20;;;;;;5072799;28;20052;-78
2024/01/24 04:10:25;;;;;;;15.10;9.23;;;8.30;82.20;;;;;;5072398;28;20058;-77
2024/01/24 04:12:51;;;;;;;16.58;9.43;;;8.40;82.50;;;;;;5072513;28;20029;-78
2024/01/24 04:15:17;;;;;;;14.30;9.60;;;8.40;82.30;;;;;;5072058;28;20090;-79
2024/01/24 04:17:43;;;;;;;14.60;9.25;;;8.40;82.30;;;;;;5072520;28;20024;-78
2024/01/24 04:20:09;;;;;;;14.25;9.43;;;8.40;82.30;;;;;;5072449;28;20409;-80
2024/01/24 04:22:35;;;;;;;14.10;9.13;;;8.30;82.60;;;;;;5072194;28;20070;-78
2024/01/24 04:25:01;;;;;;;14.63;9.10;;;8.30;82.30;;;;;;5071273;28;20028;-79
2024/01/24 04:27:27;;;;;;;13.90;8.95;;;8.30;82.40;;;;;;5072683;28;20020;-79
2024/01/24 04:29:53;;;;;;;14.65;8.73;;;8.20;82.40;;;;;;5072806;28;20029;-79
2024/01/24 04:32:19;;;;;;;14.68;8.90;;;8.10;82.30;;;;;;5082998;28;20017;-78
2024/01/24 04:34:45;;;;;;;12.10;7.80;;;8.20;82.70;;;;;;5072395;28;20041;-77
2024/01/24 04:37:11;;;;;;;14.27;8.32;;;8.30;82.70;;;;;;5072473;28;20032;-79
2024/01/24 04:39:37;;;;;;;14.32;8.85;;;8.20;82.60;;;;;;5072478;28;20024;-78
2024/01/24 04:42:03;;;;;;;12.45;8.02;;;8.20;82.30;;;;;;5072285;28;20027;-79
2024/01/24 04:44:30;;;;;;;13.98;8.43;;;8.20;82.50;;;;;;5072736;28;20031;-78
2024/01/24 04:46:56;;;;;;;13.73;7.95;;;8.30;82.50;;;;;;5073865;28;20104;-78
2024/01/24 04:49:21;;;;;;;11.95;7.60;;;8.30;82.30;;;;;;5073646;28;20138;-78
2024/01/24 04:51:48;;;;;;;14.90;7.65;;;8.30;82.00;;;;;;5072571;28;20100;-79
2024/01/24 04:54:15;;;;;;;12.07;7.40;;;8.20;82.00;;;;;;5072362;28;20413;-79
2024/01/24 04:56:45;;;;;;;12.10;7.75;;;8.20;82.10;;;;;;5072709;28;20394;-79
2024/01/24 04:59:12;;;;;;;12.45;7.95;;;8.20;82.00;;;;;;5071136;28;20074;-79
2024/01/24 05:01:38;;;;;;;13.93;6.88;;;8.30;81.80;;;;;;5072302;28;20059;-79
2024/01/24 05:04:04;;;;;;;12.55;7.25;;;8.30;81.70;;;;;;5072821;28;20064;-78
2024/01/24 05:06:29;;;;;;;12.15;7.07;;;8.20;81.70;;;;;;5073190;28;20036;-78
2024/01/24 05:08:55;;;;;;;12.65;7.05;;;8.20;81.50;;;;;;5076241;28;20390;-78
2024/01/24 05:11:21;;;;;;;14.88;7.55;;;8.20;81.70;;;;;;5076129;28;20103;-79
2024/01/24 05:13:48;;;;;;;9.70;6.70;;;8.20;81.60;;;;;;5076270;28;20401;-79
2024/01/24 05:16:14;;;;;;;12.00;7.22;;;8.10;81.60;;;;;;5076062;28;20088;-78
2024/01/24 05:18:39;;;;;;;14.95;8.20;;;8.00;81.60;;;;;;5076097;28;20095;-78
2024/01/24 05:21:06;;;;;;;13.27;7.85;;;8.00;82.50;;;;;;5075863;28;20024;-77
2024/01/24 05:23:32;;;;;;;15.77;7.75;;;8.10;82.60;;;;;;5076016;28;20033;-73
2024/01/24 05:25:58;;;;;;;12.05;7.40;;;8.10;82.30;;;;;;5075800;28;20162;-78
2024/01/24 05:28:24;;;;;;;12.38;6.97;;;8.10;82.10;;;;;;5076188;28;20108;-80
2024/01/24 05:30:49;;;;;;;11.32;7.07;;;8.10;82.10;;;;;;5076175;28;20032;-80
2024/01/24 05:33:15;;;;;;;11.98;7.78;;;8.00;82.20;;;;;;5075530;28;20024;-78
2024/01/24 05:35:42;;;;;;;12.82;6.80;;;8.00;82.20;;;;;;5075773;28;20080;-81
2024/01/24 05:38:08;;;;;;;14.38;7.75;;;8.10;82.60;;;;;;5075428;28;20098;-79
2024/01/24 05:40:33;;;;;;;12.57;7.57;;;8.10;81.90;;;;;;5075273;28;20024;-78
2024/01/24 05:43:01;;;;;;;16.15;8.85;;;8.20;82.30;;;;;;5074102;28;20517;-78
2024/01/24 05:45:28;;;;;;;10.88;7.60;;;8.20;82.10;;;;;;5075240;28;20056;-79
2024/01/24 05:47:53;;;;;;;13.65;7.93;;;8.10;82.00;;;;;;5075234;28;20391;-78
2024/01/24 05:50:19;;;;;;;18.42;8.88;;;8.10;82.00;;;;;;5075555;28;20128;-78
2024/01/24 05:52:45;;;;;;;14.18;7.88;;;8.10;82.10;;;;;;5075214;28;20359;-78
2024/01/24 05:55:11;;;;;;;16.42;8.82;;;8.10;82.20;;;;;;5075407;28;20115;-79
2024/01/24 05:57:41;;;;;;;11.73;7.95;;;8.20;82.30;;;;;;5075435;28;20493;-80
2024/01/24 06:00:09;;;;;;;12.18;7.43;;;8.20;82.00;;;;;;5075345;28;20036;-80
2024/01/24 06:02:38;;;;;;;12.48;8.40;;;8.10;82.10;;;;;;5075385;28;20024;-77
2024/01/24 06:05:04;;;;;;;12.82;8.20;;;8.20;82.40;;;;;;5074634;28;20427;-78
2024/01/24 06:07:31;;;;;;;12.38;7.90;;;8.10;82.00;;;;;;5075224;28;20141;-78
2024/01/24 06:09:57;;;;;;;14.73;8.05;;;8.00;82.10;;;;;;5075275;28;20024;-80
2024/01/24 06:12:23;;;;;;;11.63;7.95;;;7.90;82.10;;;;;;5073451;28;20178;-79
2024/01/24 06:14:49;;;;;;;12.82;8.25;;;7.80;82.10;;;;;;5074581;28;20027;-78
2024/01/24 06:17:16;;;;;;;11.77;7.50;;;7.80;82.20;;;;;;5074830;28;20093;-77
2024/01/24 06:19:44;;;;;;;18.00;8.38;;;7.80;82.50;;;;;;5074754;28;20027;-77
2024/01/24 06:22:10;;;;;;;13.55;7.82;;;7.80;82.70;;;;;;5074681;28;20043;-78
2024/01/24 06:24:36;;;;;;;12.90;8.07;;;7.80;82.50;;;;;;5074163;28;20032;-76
2024/01/24 06:27:02;;;;;;;13.27;8.55;;;7.80;82.60;;;;;;5074165;28;20107;-78
2024/01/24 06:29:29;;;;;;;13.27;8.50;;;7.80;82.30;;;;;;5074222;28;20475;-77
2024/01/24 06:31:55;;;;;;;17.48;9.30;;;7.90;82.80;;;;;;5074285;28;20043;-77
2024/01/24 06:34:21;;;;;;;12.77;9.10;;;7.80;82.20;;;;;;5074049;28;20048;-78
2024/01/24 06:36:49;;;;;;;13.10;8.68;;;7.80;82.60;;;;;;5073862;28;20013;-78
2024/01/24 06:39:14;;;;;;;17.65;9.73;;;7.90;82.60;;;;;;5073972;28;20043;-78
2024/01/24 06:41:40;;;;;;;13.35;9.02;;;7.90;82.30;;;;;;5074416;28;20331;-78
2024/01/24 06:44:06;;;;;;;15.10;8.98;;;8.00;82.50;;;;;;5074235;28;20482;-78
2024/01/24 06:46:33;;;;;;;14.80;8.77;;;8.00;82.30;;;;;;5073846;28;20064;-78
2024/01/24 06:48:59;;;;;;;17.65;9.10;;;8.00;82.60;;;;;;5073713;28;20024;-79
2024/01/24 06:51:24;;;;;;;12.50;8.10;;;8.00;82.50;;;;;;5073725;28;20493;-80
2024/01/24 06:53:50;;;;;;;15.57;9.77;;;8.00;82.40;;;;;;5074066;28;20021;-78
2024/01/24 06:56:16;;;;;;;17.52;9.65;;;8.00;82.30;;;;;;5074038;28;20036;-79
2024/01/24 06:58:42;;;;;;;19.52;9.38;;;8.00;82.60;;;;;;5075445;28;20389;-78
2024/01/24 07:01:07;;;;;;;16.30;9.48;;;8.00;82.30;;;;;;5074005;28;20449;-78
2024/01/24 07:03:34;;;;;;;18.85;9.25;;;8.20;82.30;;;;;;5073490;28;20078;-78
2024/01/24 07:06:00;;;;;;;17.80;10.00;;;8.60;81.90;;;;;;5073211;28;20032;-79
2024/01/24 07:08:25;;;;;;;17.92;8.88;;;9.10;81.20;;;;;;5073371;28;20524;-79
2024/01/24 07:10:51;;;;;;;16.25;8.60;;;9.70;80.00;;;;;;5074312;28;20032;-81
2024/01/24 07:13:17;;;;;;;12.77;8.35;;;10.40;77.30;;;;;;5073846;28;20051;-85
2024/01/24 07:15:42;;;;;;;14.02;9.02;;;11.10;75.30;;;;;;5073448;28;20100;-77
2024/01/24 07:18:09;;;;;;;14.75;8.52;;;11.80;73.90;;;;;;5073919;28;20020;-81
2024/01/24 07:20:35;;;;;;;16.45;9.35;;;12.30;72.10;;;;;;5073178;28;20512;-74
2024/01/24 07:23:01;;;;;;;18.88;9.48;;;12.80;71.70;;;;;;5073284;28;20028;-74
2024/01/24 07:25:27;;;;;;;15.93;9.18;;;13.10;70.60;;;;;;5073176;28;20044;-75
2024/01/24 07:27:53;;;;;;;17.63;9.43;;;13.20;70.10;;;;;;5072946;28;20016;-75
2024/01/24 07:30:22;;;;;;;14.07;9.07;;;13.20;69.50;;;;;;5072037;28;20490;-76
2024/01/24 07:32:48;;;;;;;18.17;8.77;;;13.30;69.70;;;;;;5073009;28;20029;-77
2024/01/24 07:35:15;;;;;;;19.20;9.20;;;13.50;68.90;;;;;;5072545;28;20059;-77
2024/01/24 07:37:41;;;;;;;15.73;9.02;;;13.80;68.30;;;;;;5072990;28;20027;-77
2024/01/24 07:40:07;;;;;;;15.48;8.82;;;13.80;67.40;;;;;;5071634;28;20024;-76
2024/01/24 07:42:33;;;;;;;14.32;9.02;;;13.80;67.20;;;;;;5072147;28;20088;-76
2024/01/24 07:44:59;;;;;;;17.75;9.13;;;13.90;67.00;;;;;;5072625;28;20459;-73
2024/01/24 07:47:25;;;;;;;16.30;9.38;;;14.00;66.50;;;;;;5072633;28;20093;-77
2024/01/24 07:49:50;;;;;;;18.50;9.85;;;13.10;66.50;;;;;;5072390;28;20125;-77
2024/01/24 07:52:16;;;;;;;20.30;10.27;;;12.30;68.40;;;;;;5072761;28;20060;-76
2024/01/24 07:54:42;;;;;;;21.02;10.40;;;11.60;69.40;;;;;;5073277;28;20143;-78
2024/01/24 07:57:07;;;;;;;16.42;10.23;;;11.20;70.90;;;;;;5072580;28;20402;-77
2024/01/24 07:59:34;;;;;;;25.27;10.63;;;10.80;71.70;;;;;;5072212;28;20036;-77
2024/01/24 08:01:59;;;;;;;20.10;10.15;;;10.50;72.00;;;;;;5072244;28;20074;-75
2024/01/24 08:04:25;;;;;;;23.40;10.43;;;10.30;72.70;;;;;;5072728;28;20068;-78
2024/01/24 08:06:51;;;;;;;15.95;9.30;;;10.20;73.30;;;;;;5072599;28;20027;-80
2024/01/24 08:09:17;;;;;;;20.05;10.02;;;10.00;73.40;;;;;;5072633;28;20473;-82
2024/01/24 08:11:43;;;;;;;18.15;10.10;;;10.00;73.90;;;;;;5072869;28;20032;-80
2024/01/24 08:14:09;;;;;;;15.43;9.00;;;9.90;74.90;;;;;;5072392;28;20340;-75
2024/01/24 08:16:35;;;;;;;15.27;9.57;;;9.80;74.90;;;;;;5072521;28;20031;-76
2024/01/24 08:19:01;;;;;;;15.10;9.48;;;9.70;75.20;;;;;;5072062;28;20032;-75
2024/01/24 08:21:27;;;;;;;16.25;8.70;;;9.70;75.50;;;;;;5071778;28;20068;-74
2024/01/24 08:23:53;;;;;;;16.38;8.90;;;9.70;75.50;;;;;;5071636;28;20482;-75
2024/01/24 08:26:19;;;;;;;16.30;8.82;;;9.70;75.50;;;;;;5071881;28;20111;-76
2024/01/24 08:28:45;;;;;;;16.95;9.30;;;9.70;75.50;;;;;;5071907;28;20146;-75
2024/01/24 08:31:11;;;;;;;17.00;9.05;;;9.70;75.50;;;;;;5071990;28;20074;-75
2024/01/24 08:33:37;;;;;;;14.05;9.25;;;9.70;75.30;;;;;;5071915;28;20024;-74
2024/01/24 08:36:03;;;;;;;21.40;9.35;;;9.70;75.50;;;;;;5071919;28;20025;-75
2024/01/24 08:38:30;;;;;;;14.75;9.45;;;9.70;75.50;;;;;;5071992;28;20047;-75
2024/01/24 08:40:55;;;;;;;18.48;9.50;;;9.80;75.60;;;;;;5073471;28;20394;-75
2024/01/24 08:43:21;;;;;;;19.10;10.13;;;9.70;75.30;;;;;;5076045;28;20035;-75
2024/01/24 08:45:48;;;;;;;18.30;9.45;;;9.80;75.60;;;;;;5076121;28;20111;-75
2024/01/24 08:48:14;;;;;;;14.60;8.93;;;9.80;75.40;;;;;;5075930;28;20398;-75
2024/01/24 08:50:40;;;;;;;18.55;9.95;;;9.80;75.00;;;;;;5075898;28;20024;-74
2024/01/24 08:53:06;;;;;;;24.88;14.98;;;9.90;75.30;;;;;;5074306;28;20386;-75
2024/01/24 08:55:31;;;;;;;24.08;16.13;;;9.90;75.00;;;;;;5075864;28;20039;-73
2024/01/24 08:57:57;;;;;;;22.35;12.57;;;10.00;73.90;;;;;;5075654;28;20048;-73
2024/01/24 09:00:23;;;;;;;19.02;8.85;;;10.10;73.90;;;;;;5075808;28;20028;-80
2024/01/24 09:02:48;;;;;;;14.57;9.25;;;10.20;73.80;;;;;;5076000;28;20021;-83
2024/01/24 09:05:18;;;;;;;14.02;8.77;;;10.20;73.60;;;;;;5077995;28;20492;-85
2024/01/24 09:07:44;;;;;;;16.45;9.35;;;10.30;73.60;;;;;;5076284;28;20021;-83
2024/01/24 09:10:10;;;;;;;15.88;8.75;;;10.40;73.50;;;;;;5075784;28;20102;-83
2024/01/24 09:12:37;;;;;;;15.15;8.63;;;10.50;73.40;;;;;;5076218;28;20478;-84
2024/01/24 09:15:04;;;;;;;15.55;9.73;;;10.50;72.90;;;;;;5076286;28;20051;-80
2024/01/24 09:17:30;;;;;;;15.82;9.30;;;10.60;73.30;;;;;;5076212;28;20051;-79
2024/01/24 09:19:55;;;;;;;16.98;9.48;;;10.70;73.00;;;;;;5075278;28;20481;-77
2024/01/24 09:22:21;;;;;;;16.95;9.48;;;10.80;72.70;;;;;;5075904;28;20073;-77
2024/01/24 09:24:47;;;;;;;13.75;8.40;;;10.90;72.70;;;;;;5078979;28;20043;-78
2024/01/24 09:27:12;;;;;;;14.43;8.80;;;11.00;72.50;;;;;;5075539;28;20445;-78
2024/01/24 09:29:38;;;;;;;29.20;8.80;;;11.10;72.40;;;;;;5075236;28;20448;-79
2024/01/24 09:32:04;;;;;;;23.77;8.52;;;11.20;72.30;;;;;;5075504;28;20107;-77
2024/01/24 09:34:29;;;;;;;13.43;7.55;;;11.20;71.70;;;;;;5075156;28;20079;-77
2024/01/24 09:36:56;;;;;;;16.05;8.52;;;11.30;71.40;;;;;;5075100;28;20104;-78
2024/01/24 09:39:25;;;;;;;14.38;7.72;;;11.30;71.40;;;;;;5075117;28;20063;-79
2024/01/24 09:41:51;;;;;;;15.20;8.10;;;11.40;71.30;;;;;;5075445;28;20016;-79
2024/01/24 09:44:17;;;;;;;16.65;7.53;;;11.40;71.20;;;;;;5074612;28;20028;-75
2024/01/24 09:46:43;;;;;;;18.63;9.05;;;11.50;70.90;;;;;;5075003;28;20035;-77
2024/01/24 09:49:14;;;;;;;12.90;7.65;;;11.50;70.90;;;;;;5074839;28;20089;-77
2024/01/24 09:51:42;;;;;;;15.02;7.85;;;11.60;70.90;;;;;;5074784;28;20142;-75
2024/01/24 09:54:08;;;;;;;10.93;7.10;;;11.60;70.60;;;;;;5074461;28;20463;-74
2024/01/24 09:56:38;;;;;;;14.90;7.63;;;11.60;70.40;;;;;;5074829;28;20031;-75
2024/01/24 09:59:05;;;;;;;15.35;8.68;;;11.70;70.50;;;;;;5075057;28;20040;-73
2024/01/24 10:01:34;;;;;;;17.40;8.32;;;11.80;70.60;;;;;;5074731;28;20021;-76
2024/01/24 10:04:01;;;;;;;19.50;9.30;;;11.90;70.40;;;;;;5073475;28;20055;-76
2024/01/24 10:06:30;;;;;;;15.73;7.72;;;12.00;70.40;;;;;;5074802;28;20033;-76
2024/01/24 10:08:57;;;;;;;15.63;7.50;;;12.10;70.30;;;;;;5074705;28;20077;-76
2024/01/24 10:11:26;;;;;;;15.65;7.57;;;12.10;69.80;;;;;;5074378;28;20020;-75
2024/01/24 10:13:58;;;;;;;18.50;7.97;;;12.20;70.00;;;;;;5074469;28;20028;-79
2024/01/24 10:16:27;;;;;;;12.38;7.93;;;12.30;69.80;;;;;;5074447;28;20036;-82
2024/01/24 10:18:56;;;;;;;11.77;7.38;;;12.40;69.80;;;;;;5074654;28;20092;-79
2024/01/24 10:21:24;;;;;;;11.57;7.10;;;12.40;69.40;;;;;;5073062;28;20238;-77
2024/01/24 10:23:50;;;;;;;12.32;7.40;;;12.50;69.50;;;;;;5074198;28;20021;-76
2024/01/24 10:26:16;;;;;;;17.00;8.10;;;12.70;69.50;;;;;;5074130;28;20032;-77
2024/01/24 10:28:43;;;;;;;19.02;11.70;;;12.80;69.50;;;;;;5074109;28;20478;-76
2024/01/24 10:31:09;;;;;;;12.15;7.55;;;12.80;69.30;;;;;;5074515;28;20134;-79
2024/01/24 10:33:35;;;;;;;16.85;9.10;;;12.90;68.90;;;;;;5074231;28;20066;-75
2024/01/24 10:36:01;;;;;;;12.30;7.22;;;13.00;69.00;;;;;;5073880;28;20041;-76
2024/01/24 10:38:33;;;;;;;12.07;7.85;;;13.00;68.70;;;;;;5073950;28;20044;-74
2024/01/24 10:41:01;;;;;;;12.25;7.82;;;13.10;68.80;;;;;;5073586;28;20027;-74
2024/01/24 10:43:28;;;;;;;14.80;7.60;;;13.20;68.80;;;;;;5073725;28;20474;-77
2024/01/24 10:45:55;;;;;;;16.58;8.13;;;13.30;68.60;;;;;;5073603;28;20481;-76
2024/01/24 10:48:21;;;;;;;16.95;8.25;;;13.40;68.50;;;;;;5074023;28;20120;-74
2024/01/24 10:50:47;;;;;;;16.83;8.70;;;13.50;68.10;;;;;;5073508;28;20393;-77
2024/01/24 10:53:14;;;;;;;14.88;8.68;;;13.50;68.00;;;;;;5073245;28;20497;-76
2024/01/24 10:55:42;;;;;;;13.07;7.95;;;13.60;68.20;;;;;;5073341;28;20028;-76
2024/01/24 10:58:11;;;;;;;15.95;8.90;;;13.70;68.10;;;;;;5073810;28;20051;-77
2024/01/24 11:00:41;;;;;;;15.55;8.27;;;13.80;67.80;;;;;;5073631;28;20031;-77
2024/01/24 11:03:07;;;;;;;14.48;7.82;;;13.90;67.60;;;;;;5073512;28;20036;-78
2024/01/24 11:05:38;;;;;;;17.13;9.25;;;13.90;67.50;;;;;;5072246;28;20033;-76
2024/01/24 11:08:34;;;;;;;13.85;8.38;;;14.00;67.50;;;;;;5073128;28;20032;-77
2024/01/24 11:11:08;;;;;;;15.00;8.70;;;14.10;67.70;;;;;;5073498;28;20036;-76
2024/01/24 11:13:37;;;;;;;13.85;8.02;;;14.30;67.00;;;;;;5073108;28;20059;-79
2024/01/24 11:16:25;;;;;;;11.65;7.65;;;14.30;67.30;;;;;;5073171;28;20025;-77
2024/01/24 11:18:52;;;;;;;13.95;7.50;;;14.30;67.10;;;;;;5072931;28;20029;-75
2024/01/24 11:21:21;;;;;;;13.85;7.65;;;14.30;67.20;;;;;;5073073;28;20052;-78
2024/01/24 11:23:49;;;;;;;12.60;5.88;;;14.50;67.40;;;;;;5073242;28;20062;-76
2024/01/24 11:26:17;;;;;;;11.13;6.10;;;14.60;67.60;;;;;;5073676;28;20039;-75
2024/01/24 11:28:44;;;;;;;11.50;6.80;;;14.80;67.50;;;;;;5073293;28;20513;-76
2024/01/24 11:31:11;;;;;;;10.75;7.28;;;15.00;67.30;;;;;;5073266;28;20094;-79
2024/01/24 11:33:56;;;;;;;12.13;6.53;;;15.20;67.00;;;;;;5073259;28;20166;-81
2024/01/24 11:36:25;;;;;;;11.40;6.20;;;15.30;66.60;;;;;;5073009;28;20114;-80
2024/01/24 11:38:51;;;;;;;14.18;6.82;;;15.50;66.70;;;;;;5072961;28;20091;-80
2024/01/24 11:41:27;;;;;;;13.15;6.55;;;15.70;66.60;;;;;;5072979;28;20553;-81
2024/01/24 11:43:53;;;;;;;13.73;6.13;;;15.70;66.40;;;;;;5073679;28;20097;-78
2024/01/24 11:46:21;;;;;;;12.82;6.05;;;15.70;66.20;;;;;;5074104;28;20025;-79
2024/01/24 11:48:47;;;;;;;12.77;6.70;;;15.70;66.20;;;;;;5072857;28;20033;-80
2024/01/24 11:51:14;;;;;;;12.90;6.50;;;15.70;66.00;;;;;;5073130;28;20066;-80
2024/01/24 11:53:39;;;;;;;14.57;6.85;;;15.80;65.80;;;;;;5073128;28;20025;-80
2024/01/24 11:56:07;;;;;;;13.07;7.95;;;15.80;65.60;;;;;;5064250;28;20454;-77
2024/01/24 11:58:33;;;;;;;13.88;6.80;;;15.90;65.30;;;;;;5059833;28;20032;-73
2024/01/24 12:01:03;;;;;;;11.68;6.32;;;16.10;65.30;;;;;;5055250;28;20021;-77
2024/01/24 12:03:30;;;;;;;11.75;6.65;;;16.20;64.70;;;;;;5072157;28;20039;-81
2024/01/24 12:05:56;;;;;;;11.63;6.45;;;16.40;64.60;;;;;;5072310;28;20033;-83
2024/01/24 12:08:22;;;;;;;11.95;6.30;;;16.50;64.50;;;;;;5072251;28;20108;-79
2024/01/24 12:10:48;;;;;;;10.23;5.80;;;16.60;64.20;;;;;;5071885;28;20178;-82
2024/01/24 12:13:15;;;;;;;14.15;6.78;;;16.70;63.80;;;;;;5073393;28;20034;-78
2024/01/24 12:15:44;;;;;;;13.10;5.82;;;16.80;63.60;;;;;;5072684;28;20025;-87
2024/01/24 12:18:13;;;;;;;14.43;7.35;;;16.80;63.30;;;;;;5072044;28;20195;-80
2024/01/24 12:20:46;;;;;;;12.10;6.00;;;16.90;63.00;;;;;;5071966;28;20143;-79
2024/01/24 12:23:11;;;;;;;9.75;5.47;;;16.90;62.90;;;;;;5073356;28;20024;-80
2024/01/24 12:25:37;;;;;;;14.15;4.82;;;16.80;62.50;;;;;;5077424;23;20505;-81
2024/01/24 12:28:05;;;;;;;10.40;4.57;;;16.80;61.70;;;;;;5061141;28;20600;-81
2024/01/24 12:30:32;;;;;;;7.78;4.60;;;16.70;61.60;;;;;;5060553;28;20018;-80
2024/01/24 12:32:59;;;;;;;8.10;4.50;;;16.70;61.00;;;;;;5063350;28;20397;-81
2024/01/24 12:35:25;;;;;;;9.77;4.22;;;16.70;60.60;;;;;;5051821;28;20056;-80